Time;durP1;ratioP1;P1;durP2;ratioP2;P2;SDS_P1;SDS_P2;PMS_P1;PMS_P2;Temp;Humidity;BMP_temperature;BMP_pressure;BME280_temperature;BME280_humidity;BME280_pressure;Samples;Min_cycle;Max_cycle;Signal;HPM_P1;HPM_P2
2021/03/16 00:00:18;;;;;;;44.40;4.47;;;4.90;94.70;;;;;;4930966;28;20169;-86
2021/03/16 00:02:44;;;;;;;55.63;6.72;;;5.00;94.60;;;;;;4976029;28;20038;-88
2021/03/16 00:05:10;;;;;;;38.90;5.07;;;5.00;94.70;;;;;;4996089;28;20069;-87
2021/03/16 00:07:36;;;;;;;46.20;5.70;;;5.00;94.70;;;;;;4944841;28;20166;-86
2021/03/16 00:10:03;;;;;;;41.17;5.03;;;4.90;94.60;;;;;;4964380;28;20126;-88
2021/03/16 00:12:29;;;;;;;39.17;4.32;;;4.90;94.70;;;;;;4976064;28;20031;-88
2021/03/16 00:14:55;;;;;;;43.83;5.50;;;4.90;94.70;;;;;;4970581;28;20378;-87
2021/03/16 00:17:20;;;;;;;42.60;4.95;;;4.90;94.70;;;;;;4969018;28;20038;-87
2021/03/16 00:19:47;;;;;;;44.97;4.60;;;4.90;94.70;;;;;;4978600;28;20035;-87
2021/03/16 00:22:13;;;;;;;34.40;4.60;;;4.90;94.80;;;;;;4989592;28;20034;-87
2021/03/16 00:24:39;;;;;;;40.33;4.30;;;4.90;94.80;;;;;;4963547;28;20034;-88
2021/03/16 00:27:05;;;;;;;40.80;4.78;;;4.90;94.70;;;;;;4974042;28;20050;-87
2021/03/16 00:29:31;;;;;;;29.70;3.83;;;4.90;94.70;;;;;;4954008;28;20042;-87
2021/03/16 00:31:57;;;;;;;37.05;3.97;;;4.90;94.70;;;;;;4952764;28;20049;-87
2021/03/16 00:34:23;;;;;;;30.42;3.92;;;4.90;94.70;;;;;;4978714;28;20030;-87
2021/03/16 00:36:49;;;;;;;38.83;4.07;;;4.90;94.70;;;;;;4974343;28;20494;-88
2021/03/16 00:39:15;;;;;;;40.80;4.50;;;4.90;94.60;;;;;;4987765;28;20504;-87
2021/03/16 00:41:41;;;;;;;35.35;4.38;;;4.90;94.60;;;;;;4979072;28;20034;-87
2021/03/16 00:44:07;;;;;;;32.63;4.03;;;4.90;94.60;;;;;;4988885;28;20031;-88
2021/03/16 00:46:34;;;;;;;31.17;3.90;;;5.00;94.90;;;;;;4978160;28;20031;-87
2021/03/16 00:49:01;;;;;;;35.85;4.50;;;5.00;94.60;;;;;;4987386;28;20552;-87
2021/03/16 00:51:28;;;;;;;28.58;3.85;;;5.00;94.60;;;;;;4981743;28;20371;-87
2021/03/16 00:53:53;;;;;;;34.08;4.10;;;5.00;94.60;;;;;;4966853;28;20034;-87
2021/03/16 00:56:19;;;;;;;37.50;4.45;;;5.00;94.60;;;;;;4997249;28;20118;-86
2021/03/16 00:58:45;;;;;;;32.85;4.55;;;5.00;94.60;;;;;;4985964;28;20034;-87
2021/03/16 01:01:11;;;;;;;32.50;4.40;;;5.00;94.60;;;;;;4969186;28;20714;-88
2021/03/16 01:03:37;;;;;;;36.53;3.65;;;5.00;94.50;;;;;;4967084;28;20118;-86
2021/03/16 01:06:03;;;;;;;31.02;3.30;;;5.00;94.50;;;;;;4960978;28;20042;-88
2021/03/16 01:08:29;;;;;;;39.42;4.80;;;5.00;94.50;;;;;;4939291;28;20042;-87
2021/03/16 01:10:56;;;;;;;37.25;4.10;;;5.00;94.60;;;;;;4971067;28;20065;-87
2021/03/16 01:13:22;;;;;;;34.13;4.43;;;4.90;94.50;;;;;;4962041;28;20514;-88
2021/03/16 01:15:49;;;;;;;35.30;4.28;;;5.00;94.50;;;;;;4972268;28;20042;-87
2021/03/16 01:18:15;;;;;;;35.80;3.97;;;4.90;94.60;;;;;;4973310;28;20042;-88
2021/03/16 01:20:41;;;;;;;34.70;3.97;;;4.90;94.60;;;;;;4969657;28;20315;-86
2021/03/16 01:23:07;;;;;;;31.10;4.53;;;4.90;94.50;;;;;;4984179;28;20113;-86
2021/03/16 01:25:33;;;;;;;36.08;4.60;;;4.90;94.50;;;;;;4987046;28;20125;-87
2021/03/16 01:27:59;;;;;;;29.20;3.97;;;4.80;94.50;;;;;;4955536;28;20125;-87
2021/03/16 01:30:25;;;;;;;29.05;3.83;;;4.90;94.50;;;;;;4986015;28;20516;-87
2021/03/16 01:32:52;;;;;;;35.42;3.97;;;4.90;94.50;;;;;;4970599;28;20062;-86
2021/03/16 01:35:20;;;;;;;32.88;4.65;;;4.90;94.60;;;;;;4984888;28;20101;-87
2021/03/16 01:37:46;;;;;;;30.48;3.53;;;5.00;94.80;;;;;;4971402;28;20088;-87
2021/03/16 01:40:15;;;;;;;34.75;3.60;;;5.00;94.50;;;;;;4971916;28;20370;-87
2021/03/16 01:42:42;;;;;;;33.58;3.72;;;5.00;94.50;;;;;;4995275;28;20045;-88
2021/03/16 01:45:15;;;;;;;29.10;3.75;;;5.00;94.50;;;;;;4982867;28;20066;-87
2021/03/16 01:47:45;;;;;;;33.70;3.80;;;5.10;94.60;;;;;;4962274;28;20049;-85
2021/03/16 01:50:12;;;;;;;38.20;4.72;;;5.10;94.50;;;;;;4978023;28;20039;-86
2021/03/16 01:52:39;;;;;;;28.90;3.75;;;5.10;94.40;;;;;;4980256;28;20035;-88
2021/03/16 01:55:06;;;;;;;27.08;3.67;;;5.10;94.30;;;;;;4974956;28;20137;-86
2021/03/16 01:57:32;;;;;;;31.70;3.85;;;5.20;94.20;;;;;;4970322;28;20114;-86
2021/03/16 01:59:58;;;;;;;25.15;3.20;;;5.20;94.20;;;;;;4991671;28;20046;-88
2021/03/16 02:02:24;;;;;;;36.17;3.42;;;5.20;94.10;;;;;;4945461;28;20066;-87
2021/03/16 02:04:51;;;;;;;28.33;3.40;;;5.20;94.20;;;;;;4959817;28;20034;-85
2021/03/16 02:07:31;;;;;;;25.60;3.35;;;5.20;94.50;;;;;;4957599;28;20030;-87
2021/03/16 02:10:18;;;;;;;17.75;2.83;;;5.30;94.30;;;;;;4970170;28;20038;-88
2021/03/16 02:12:46;;;;;;;25.30;3.05;;;5.30;94.30;;;;;;4988369;28;20088;-88
2021/03/16 02:15:16;;;;;;;20.08;3.42;;;5.30;94.20;;;;;;4986843;28;20088;-87
2021/03/16 02:17:47;;;;;;;28.45;3.95;;;5.30;94.20;;;;;;4966197;28;20046;-87
2021/03/16 02:20:16;;;;;;;23.33;2.50;;;5.30;94.10;;;;;;4987213;28;20033;-86
2021/03/16 02:22:44;;;;;;;30.48;2.95;;;5.40;94.20;;;;;;4981570;28;20068;-87
2021/03/16 02:25:32;;;;;;;25.33;3.45;;;5.40;94.10;;;;;;4969227;28;20533;-87
2021/03/16 02:28:10;;;;;;;25.58;3.40;;;5.40;94.20;;;;;;4966450;28;20069;-86
2021/03/16 02:30:42;;;;;;;28.55;3.50;;;5.40;94.20;;;;;;4981074;28;20033;-87
2021/03/16 02:33:10;;;;;;;23.52;3.45;;;5.40;94.20;;;;;;4981432;28;20037;-87
2021/03/16 02:35:38;;;;;;;26.55;3.33;;;5.40;94.20;;;;;;4986201;28;20030;-85
2021/03/16 02:38:05;;;;;;;31.50;3.28;;;5.40;94.20;;;;;;4983899;28;20030;-86
2021/03/16 02:40:34;;;;;;;30.05;3.03;;;5.40;94.30;;;;;;4971270;28;20058;-87
2021/03/16 02:43:02;;;;;;;33.05;3.22;;;5.40;94.20;;;;;;4964558;28;20054;-88
2021/03/16 02:45:30;;;;;;;33.60;2.67;;;5.40;94.20;;;;;;4981156;28;20088;-87
2021/03/16 02:47:57;;;;;;;25.17;2.65;;;5.40;94.10;;;;;;4990574;28;20038;-87
2021/03/16 02:50:24;;;;;;;23.35;2.97;;;5.40;94.00;;;;;;4978122;28;20022;-86
2021/03/16 02:52:53;;;;;;;23.70;3.25;;;5.40;94.00;;;;;;4992826;28;20034;-88
2021/03/16 02:55:20;;;;;;;29.10;3.22;;;5.40;93.90;;;;;;4974998;28;20031;-85
2021/03/16 02:57:47;;;;;;;23.70;2.95;;;5.40;93.70;;;;;;4972472;28;20042;-87
2021/03/16 03:00:15;;;;;;;21.48;2.70;;;5.40;93.90;;;;;;4952273;28;20046;-87
2021/03/16 03:02:44;;;;;;;33.85;3.67;;;5.40;93.90;;;;;;4959260;28;20376;-86
2021/03/16 03:05:11;;;;;;;30.02;4.05;;;5.40;94.00;;;;;;4990001;28;20031;-88
2021/03/16 03:07:40;;;;;;;21.77;2.80;;;5.40;94.00;;;;;;4942501;28;20038;-87
2021/03/16 03:10:07;;;;;;;31.40;3.90;;;5.40;94.00;;;;;;4967974;28;20070;-85
2021/03/16 03:12:33;;;;;;;20.27;3.20;;;5.40;94.10;;;;;;4983226;28;20038;-87
2021/03/16 03:14:59;;;;;;;25.13;3.50;;;5.40;94.10;;;;;;4975403;28;20474;-87
2021/03/16 03:17:25;;;;;;;27.35;3.45;;;5.40;94.20;;;;;;4974633;28;20050;-88
2021/03/16 03:19:51;;;;;;;24.55;3.63;;;5.40;94.20;;;;;;4959243;28;20255;-87
2021/03/16 03:22:43;;;;;;;33.88;3.35;;;5.40;94.10;;;;;;4957433;28;20057;-87
2021/03/16 03:25:24;;;;;;;16.08;3.03;;;5.40;94.30;;;;;;4986969;28;20035;-87
2021/03/16 03:27:56;;;;;;;31.50;3.00;;;5.30;94.30;;;;;;4995229;28;20395;-87
2021/03/16 03:30:23;;;;;;;29.98;3.33;;;5.40;94.30;;;;;;4974712;28;20074;-87
2021/03/16 03:32:50;;;;;;;26.35;3.28;;;5.40;94.40;;;;;;4976791;28;20069;-85
2021/03/16 03:35:17;;;;;;;30.25;4.07;;;5.40;94.40;;;;;;4977687;28;20030;-85
2021/03/16 03:37:48;;;;;;;31.20;3.35;;;5.40;94.40;;;;;;4958286;28;20038;-87
2021/03/16 03:40:15;;;;;;;31.40;4.45;;;5.30;94.40;;;;;;4961350;28;20078;-87
2021/03/16 03:42:42;;;;;;;30.35;3.40;;;5.40;94.50;;;;;;4978115;28;20037;-86
2021/03/16 03:45:10;;;;;;;37.10;3.85;;;5.40;94.50;;;;;;4976630;28;20062;-87
2021/03/16 03:47:38;;;;;;;29.33;3.28;;;5.40;94.50;;;;;;4997803;28;20162;-86
2021/03/16 03:50:06;;;;;;;30.60;3.53;;;5.30;94.60;;;;;;4965776;28;20061;-86
2021/03/16 03:52:33;;;;;;;24.33;3.15;;;5.40;94.60;;;;;;4971273;28;20402;-87
2021/03/16 03:54:59;;;;;;;32.35;3.35;;;5.40;94.60;;;;;;4978635;28;20501;-87
2021/03/16 03:57:26;;;;;;;30.95;3.58;;;5.40;94.50;;;;;;4985318;28;20715;-86
2021/03/16 03:59:54;;;;;;;23.00;3.03;;;5.40;94.60;;;;;;4986821;28;20397;-88
2021/03/16 04:02:20;;;;;;;28.63;4.10;;;5.30;94.60;;;;;;4959365;28;20256;-88
2021/03/16 04:04:47;;;;;;;26.77;3.55;;;5.40;94.50;;;;;;4969641;28;20054;-88
2021/03/16 04:07:14;;;;;;;19.33;2.70;;;5.40;94.60;;;;;;4965573;28;20449;-88
2021/03/16 04:09:40;;;;;;;29.70;3.58;;;5.40;94.60;;;;;;4963102;28;20495;-87
2021/03/16 04:12:08;;;;;;;24.27;3.72;;;5.40;94.60;;;;;;4977479;28;20030;-88
2021/03/16 04:14:36;;;;;;;25.67;3.28;;;5.40;94.60;;;;;;4982355;28;20030;-88
2021/03/16 04:17:03;;;;;;;26.92;3.13;;;5.40;94.70;;;;;;4988721;28;20126;-88
2021/03/16 04:19:29;;;;;;;28.20;3.83;;;5.30;94.60;;;;;;4985999;28;20093;-87
2021/03/16 04:21:55;;;;;;;31.55;4.30;;;5.30;94.70;;;;;;4965160;28;20043;-88
2021/03/16 04:24:22;;;;;;;27.55;2.80;;;5.30;94.70;;;;;;4979167;28;20117;-88
2021/03/16 04:26:48;;;;;;;24.73;3.15;;;5.30;94.70;;;;;;4977103;28;20030;-88
2021/03/16 04:29:14;;;;;;;23.17;3.03;;;5.40;94.80;;;;;;4951590;28;20507;-88
2021/03/16 04:31:40;;;;;;;24.90;3.00;;;5.30;94.80;;;;;;4955684;28;20069;-88
2021/03/16 04:34:06;;;;;;;30.25;3.28;;;5.40;94.90;;;;;;4957313;28;20045;-88
2021/03/16 04:36:32;;;;;;;23.58;3.60;;;5.30;94.90;;;;;;4961775;28;20421;-88
2021/03/16 04:38:57;;;;;;;32.88;3.55;;;5.30;94.90;;;;;;4956759;28;20089;-88
2021/03/16 04:41:23;;;;;;;21.10;2.83;;;5.30;94.80;;;;;;4982771;28;20412;-88
2021/03/16 04:43:49;;;;;;;29.27;3.42;;;5.30;94.90;;;;;;4968476;28;20027;-88
2021/03/16 04:46:16;;;;;;;24.67;3.10;;;5.30;95.00;;;;;;4968757;28;20072;-88
2021/03/16 04:48:42;;;;;;;26.23;3.40;;;5.30;95.00;;;;;;4979243;28;20038;-88
2021/03/16 04:51:08;;;;;;;28.38;3.25;;;5.30;95.00;;;;;;4973592;28;20464;-88
2021/03/16 04:53:34;;;;;;;30.95;4.43;;;5.30;95.10;;;;;;4980071;28;20547;-88
2021/03/16 04:56:00;;;;;;;31.25;3.40;;;5.30;95.10;;;;;;4955798;28;20038;-88
2021/03/16 04:58:25;;;;;;;33.33;3.28;;;5.30;95.10;;;;;;4955535;28;20066;-88
2021/03/16 05:00:51;;;;;;;28.20;3.85;;;5.30;95.10;;;;;;4972946;28;20072;-88
2021/03/16 05:03:17;;;;;;;33.30;3.42;;;5.30;95.20;;;;;;4975013;28;20129;-88
2021/03/16 05:05:43;;;;;;;28.23;3.70;;;5.30;95.20;;;;;;4973830;28;20088;-88
2021/03/16 05:08:09;;;;;;;26.20;3.40;;;5.30;95.20;;;;;;5003688;28;20097;-88
2021/03/16 05:10:34;;;;;;;33.25;4.05;;;5.30;95.50;;;;;;4987489;28;20034;-88
2021/03/16 05:13:00;;;;;;;26.73;3.08;;;5.30;95.20;;;;;;4957869;28;20050;-87
2021/03/16 05:15:26;;;;;;;33.90;3.85;;;5.30;95.20;;;;;;4989023;28;20034;-88
2021/03/16 05:17:52;;;;;;;33.75;3.33;;;5.30;95.20;;;;;;4974069;28;20064;-88
2021/03/16 05:20:18;;;;;;;35.28;4.45;;;5.30;95.20;;;;;;4967987;28;20038;-88
2021/03/16 05:22:44;;;;;;;28.85;4.40;;;5.30;95.30;;;;;;4967245;28;20129;-88
2021/03/16 05:25:11;;;;;;;33.10;3.45;;;5.30;95.30;;;;;;4938253;28;20068;-88
2021/03/16 05:27:37;;;;;;;31.00;4.20;;;5.30;95.30;;;;;;4974383;28;20560;-87
2021/03/16 05:30:07;;;;;;;24.70;3.50;;;5.20;95.20;;;;;;4942221;28;20035;-88
2021/03/16 05:32:34;;;;;;;30.77;3.47;;;5.30;95.20;;;;;;4958262;28;20035;-88
2021/03/16 05:35:00;;;;;;;28.23;2.83;;;5.30;95.10;;;;;;4969693;28;20039;-89
2021/03/16 05:37:29;;;;;;;22.35;3.30;;;5.30;95.10;;;;;;4957535;28;20448;-87
2021/03/16 05:39:55;;;;;;;27.65;2.65;;;5.20;95.10;;;;;;4966549;28;20046;-88
2021/03/16 05:42:21;;;;;;;36.65;3.70;;;5.20;95.20;;;;;;4974272;28;20071;-87
2021/03/16 05:44:49;;;;;;;34.92;4.05;;;5.20;95.10;;;;;;4959354;28;20493;-87
2021/03/16 05:47:15;;;;;;;28.40;3.55;;;5.30;95.20;;;;;;4942957;28;20409;-87
2021/03/16 05:49:45;;;;;;;28.67;3.88;;;5.30;95.20;;;;;;4941329;28;20138;-87
2021/03/16 05:52:11;;;;;;;27.60;2.92;;;5.30;95.20;;;;;;4982220;28;20057;-88
2021/03/16 05:54:38;;;;;;;24.75;3.63;;;5.30;95.20;;;;;;4984818;28;20104;-88
2021/03/16 05:57:07;;;;;;;27.70;3.08;;;5.30;95.20;;;;;;4963953;28;20038;-88
2021/03/16 05:59:34;;;;;;;23.15;3.08;;;5.30;95.20;;;;;;4985359;28;20085;-88
2021/03/16 06:01:59;;;;;;;22.40;2.88;;;5.30;95.20;;;;;;4965553;28;20517;-88
2021/03/16 06:04:25;;;;;;;34.90;3.85;;;5.30;95.10;;;;;;4974233;28;20089;-87
2021/03/16 06:06:51;;;;;;;24.17;3.15;;;5.30;95.10;;;;;;4957621;28;20341;-87
2021/03/16 06:09:17;;;;;;;33.10;3.58;;;5.30;95.10;;;;;;4961955;28;20405;-87
2021/03/16 06:11:50;;;;;;;34.83;3.90;;;5.30;95.10;;;;;;4970162;28;20037;-87
2021/03/16 06:14:16;;;;;;;30.55;3.20;;;5.30;95.10;;;;;;4967205;28;20047;-87
2021/03/16 06:16:42;;;;;;;25.67;3.38;;;5.30;95.10;;;;;;4985359;28;20036;-87
2021/03/16 06:19:09;;;;;;;33.30;3.05;;;5.30;95.20;;;;;;4957111;28;20042;-86
2021/03/16 06:21:35;;;;;;;25.92;2.75;;;5.30;95.10;;;;;;4992544;28;20042;-86
2021/03/16 06:24:01;;;;;;;31.88;3.00;;;5.30;95.20;;;;;;4985781;28;20548;-87
2021/03/16 06:26:30;;;;;;;31.40;3.75;;;5.30;95.10;;;;;;4970022;28;20066;-87
2021/03/16 06:29:07;;;;;;;35.22;3.10;;;5.30;95.00;;;;;;4993391;28;20045;-86
2021/03/16 06:31:33;;;;;;;39.63;3.33;;;5.20;95.00;;;;;;4991259;28;20038;-87
2021/03/16 06:33:59;;;;;;;22.90;3.58;;;5.20;95.00;;;;;;4953107;28;20057;-88
2021/03/16 06:36:30;;;;;;;29.55;3.38;;;5.20;95.10;;;;;;4981084;28;20035;-87
2021/03/16 06:38:56;;;;;;;28.35;2.90;;;5.20;95.10;;;;;;5001046;28;20090;-88
2021/03/16 06:41:24;;;;;;;39.33;4.07;;;5.20;95.20;;;;;;4960929;28;20043;-88
2021/03/16 06:43:58;;;;;;;33.58;3.00;;;5.10;95.20;;;;;;4977148;28;20093;-88
2021/03/16 06:46:35;;;;;;;25.08;3.20;;;5.20;95.20;;;;;;4960222;28;20050;-88
2021/03/16 06:49:21;;;;;;;32.78;4.07;;;5.20;95.20;;;;;;4953319;28;20046;-88
2021/03/16 06:51:48;;;;;;;28.67;3.53;;;5.20;95.20;;;;;;4974448;28;20168;-87
2021/03/16 06:54:19;;;;;;;31.48;3.35;;;5.20;95.10;;;;;;4968067;28;20053;-88
2021/03/16 06:57:00;;;;;;;27.38;3.05;;;5.10;95.10;;;;;;4958175;28;20038;-87
2021/03/16 06:59:28;;;;;;;36.47;3.90;;;5.10;95.10;;;;;;4973243;28;20038;-88
2021/03/16 07:01:54;;;;;;;26.38;3.63;;;5.10;95.20;;;;;;4976856;28;20036;-88
2021/03/16 07:04:22;;;;;;;30.30;3.22;;;5.10;95.20;;;;;;4989926;28;20043;-88
2021/03/16 07:06:49;;;;;;;30.33;2.85;;;5.10;95.20;;;;;;4975273;28;20038;-88
2021/03/16 07:09:17;;;;;;;27.27;4.13;;;5.10;95.10;;;;;;4958880;28;20045;-87
2021/03/16 07:11:50;;;;;;;34.25;3.47;;;5.00;95.20;;;;;;4984010;28;20034;-88
2021/03/16 07:14:17;;;;;;;;;;;5.00;95.20;;;;;;4964682;28;20039;-89
2021/03/16 07:16:44;;;;;;;21.50;2.95;;;5.00;94.90;;;;;;4970304;28;20293;-88
2021/03/16 07:19:11;;;;;;;33.60;3.40;;;5.00;95.10;;;;;;4960079;28;20042;-88
2021/03/16 07:21:58;;;;;;;29.45;3.80;;;5.00;95.20;;;;;;4972806;28;20066;-89
2021/03/16 07:24:28;;;;;;;25.27;3.70;;;5.10;95.30;;;;;;4971537;28;20043;-88
2021/03/16 07:26:55;;;;;;;18.05;2.92;;;5.20;95.30;;;;;;4961834;28;20037;-88
2021/03/16 07:29:21;;;;;;;27.50;3.67;;;5.40;95.30;;;;;;4975567;28;20038;-87
2021/03/16 07:31:49;;;;;;;29.13;4.10;;;5.50;95.20;;;;;;4971951;28;20040;-87
2021/03/16 07:34:19;;;;;;;19.98;3.15;;;5.70;95.10;;;;;;4977435;28;20049;-88
2021/03/16 07:36:46;;;;;;;22.13;2.60;;;5.80;94.90;;;;;;4990080;28;20035;-88
2021/03/16 07:39:18;;;;;;;28.80;2.80;;;5.90;94.90;;;;;;4984059;28;20038;-87
2021/03/16 07:41:44;;;;;;;27.60;3.28;;;5.90;94.60;;;;;;4959425;28;20049;-88
2021/03/16 07:44:12;;;;;;;22.95;2.80;;;6.00;94.50;;;;;;4987793;28;20038;-88
2021/03/16 07:46:51;;;;;;;30.88;3.00;;;6.10;94.40;;;;;;4955867;28;20125;-89
2021/03/16 07:49:32;;;;;;;22.60;2.95;;;6.20;94.30;;;;;;4963319;28;20517;-88
2021/03/16 07:51:59;;;;;;;26.85;3.03;;;6.20;94.20;;;;;;4978377;28;20420;-88
2021/03/16 07:54:33;;;;;;;22.17;3.00;;;6.20;94.10;;;;;;4971530;28;20034;-89
2021/03/16 07:57:00;;;;;;;21.13;2.78;;;6.20;93.90;;;;;;4982514;28;20034;-87
2021/03/16 07:59:34;;;;;;;26.27;3.17;;;6.30;94.00;;;;;;4956543;28;20057;-89
2021/03/16 08:02:00;;;;;;;18.52;2.78;;;6.30;94.10;;;;;;4974947;28;20041;-88
2021/03/16 08:04:53;;;;;;;28.95;2.88;;;6.40;93.90;;;;;;4965314;28;20065;-88
2021/03/16 08:07:21;;;;;;;24.13;3.08;;;6.50;93.90;;;;;;4982680;28;20112;-88
2021/03/16 08:09:51;;;;;;;16.30;2.55;;;6.50;93.60;;;;;;4980408;28;20045;-89
2021/03/16 08:12:24;;;;;;;21.25;2.60;;;6.60;93.70;;;;;;4954428;28;20075;-88
2021/03/16 08:14:50;;;;;;;17.88;2.35;;;6.60;93.80;;;;;;4973801;28;20098;-89
2021/03/16 08:17:34;;;;;;;22.83;2.70;;;6.70;93.70;;;;;;4957707;28;20043;-89
2021/03/16 08:20:02;;;;;;;18.25;3.05;;;6.70;93.50;;;;;;4972715;28;20045;-88
2021/03/16 08:22:29;;;;;;;30.35;3.30;;;6.60;93.20;;;;;;4977814;28;20512;-87
2021/03/16 08:25:06;;;;;;;28.05;3.22;;;6.50;93.40;;;;;;4975202;28;20041;-87
2021/03/16 08:27:36;;;;;;;23.45;2.80;;;6.40;93.20;;;;;;4986895;28;20038;-86
2021/03/16 08:30:09;;;;;;;24.70;2.55;;;6.30;93.30;;;;;;5005977;28;20481;-86
2021/03/16 08:32:36;;;;;;;22.45;3.10;;;6.30;93.60;;;;;;4989533;28;20125;-86
2021/03/16 08:35:03;;;;;;;23.85;2.70;;;6.30;93.70;;;;;;4973071;28;20034;-87
2021/03/16 08:37:36;;;;;;;22.92;2.63;;;6.40;93.60;;;;;;5006511;28;20057;-87
2021/03/16 08:40:04;;;;;;;16.27;2.03;;;6.60;93.40;;;;;;4974327;28;20038;-88
2021/03/16 08:42:30;;;;;;;22.00;2.70;;;6.80;93.40;;;;;;4979448;28;20042;-87
2021/03/16 08:44:56;;;;;;;20.30;2.67;;;6.90;92.90;;;;;;4974497;28;20442;-86
2021/03/16 08:47:24;;;;;;;17.90;2.10;;;7.00;92.80;;;;;;4967690;28;20098;-87
2021/03/16 08:49:52;;;;;;;15.13;1.92;;;7.00;92.60;;;;;;4963991;28;20158;-88
2021/03/16 08:52:24;;;;;;;13.90;2.45;;;7.00;92.10;;;;;;4984550;28;20086;-88
2021/03/16 08:54:52;;;;;;;16.27;2.17;;;7.00;92.20;;;;;;4981897;28;20396;-87
2021/03/16 08:57:21;;;;;;;13.13;1.73;;;7.00;92.40;;;;;;4981142;28;20066;-89
2021/03/16 08:59:48;;;;;;;17.50;3.15;;;7.10;92.00;;;;;;4967307;28;20034;-86
2021/03/16 09:02:34;;;;;;;11.68;2.30;;;7.20;92.00;;;;;;4976140;28;20034;-89
2021/03/16 09:05:00;;;;;;;12.30;2.15;;;7.30;91.30;;;;;;4979992;28;20631;-85
2021/03/16 09:07:29;;;;;;;17.15;2.25;;;7.20;91.90;;;;;;4982642;28;20053;-86
2021/03/16 09:10:06;;;;;;;9.90;1.98;;;7.30;91.80;;;;;;4984722;28;20430;-87
2021/03/16 09:12:32;;;;;;;16.80;2.15;;;7.40;91.10;;;;;;4986087;28;20035;-85
2021/03/16 09:15:09;;;;;;;13.75;1.60;;;7.50;91.50;;;;;;4985515;28;20058;-87
2021/03/16 09:17:36;;;;;;;14.00;2.05;;;7.60;90.90;;;;;;4987444;28;20102;-86
2021/03/16 09:20:19;;;;;;;14.55;1.67;;;7.60;91.00;;;;;;4992325;28;20034;-89
2021/03/16 09:22:58;;;;;;;11.95;1.70;;;7.60;90.80;;;;;;4980749;28;20042;-87
2021/03/16 09:25:29;;;;;;;10.85;1.35;;;7.60;91.10;;;;;;4988668;28;20120;-87
2021/03/16 09:28:01;;;;;;;16.15;2.00;;;7.80;91.10;;;;;;4987707;28;20468;-91
2021/03/16 09:30:36;;;;;;;13.48;2.00;;;7.90;91.20;;;;;;4981289;28;20077;-87
2021/03/16 09:33:07;;;;;;;14.13;2.10;;;7.90;90.70;;;;;;5004673;28;20034;-87
2021/03/16 09:35:34;;;;;;;15.18;1.60;;;7.80;90.40;;;;;;4996435;28;20030;-87
2021/03/16 09:38:05;;;;;;;13.93;2.10;;;7.70;90.80;;;;;;4957490;28;20045;-87
2021/03/16 09:40:41;;;;;;;13.77;2.45;;;7.60;90.80;;;;;;4988230;28;20039;-86
2021/03/16 09:43:29;;;;;;;14.18;1.83;;;7.60;91.10;;;;;;4988420;28;20030;-87
2021/03/16 09:45:58;;;;;;;12.27;1.90;;;7.50;90.00;;;;;;4977565;28;20038;-86
2021/03/16 09:48:24;;;;;;;18.08;2.72;;;7.40;91.10;;;;;;4973379;28;20352;-88
2021/03/16 09:50:52;;;;;;;20.40;2.30;;;7.30;91.30;;;;;;4961938;28;20051;-88
2021/03/16 09:53:21;;;;;;;18.13;1.85;;;7.30;91.30;;;;;;4991307;28;20035;-87
2021/03/16 09:56:01;;;;;;;14.43;2.03;;;7.40;91.60;;;;;;4979800;28;20111;-90
2021/03/16 09:58:28;;;;;;;16.55;1.92;;;7.60;91.10;;;;;;4976334;28;20093;-88
2021/03/16 10:00:55;;;;;;;17.45;2.30;;;7.90;91.10;;;;;;4966137;28;20049;-86
2021/03/16 10:03:22;;;;;;;18.30;2.85;;;8.10;90.30;;;;;;4994093;28;20081;-85
2021/03/16 10:05:48;;;;;;;15.20;2.05;;;8.10;89.30;;;;;;4975683;28;20034;-86
2021/03/16 10:08:24;;;;;;;15.05;2.00;;;8.10;89.40;;;;;;4964455;28;20500;-86
2021/03/16 10:10:51;;;;;;;9.98;1.60;;;8.20;88.80;;;;;;4981193;28;20070;-88
2021/03/16 10:13:17;;;;;;;8.88;1.50;;;8.40;90.00;;;;;;4988546;28;20046;-88
2021/03/16 10:15:45;;;;;;;14.80;2.22;;;8.50;89.80;;;;;;4969840;28;20596;-86
2021/03/16 10:18:13;;;;;;;12.90;2.15;;;8.50;89.20;;;;;;4969636;28;20050;-88
2021/03/16 10:20:43;;;;;;;20.13;2.47;;;8.30;88.50;;;;;;4986526;28;20045;-86
2021/03/16 10:23:16;;;;;;;18.35;2.05;;;8.30;89.00;;;;;;4993513;28;20038;-89
2021/03/16 10:25:42;;;;;;;24.23;3.25;;;8.30;88.70;;;;;;5016444;28;20508;-86
2021/03/16 10:28:12;;;;;;;10.93;1.90;;;8.30;88.20;;;;;;4958267;28;20058;-89
2021/03/16 10:30:42;;;;;;;10.73;1.92;;;8.40;87.00;;;;;;4991319;28;20100;-86
2021/03/16 10:33:10;;;;;;;15.63;2.38;;;8.60;88.40;;;;;;4989220;28;20040;-87
2021/03/16 10:35:40;;;;;;;7.13;1.42;;;8.70;88.80;;;;;;4972211;28;20038;-87
2021/03/16 10:38:07;;;;;;;14.25;1.98;;;8.80;86.40;;;;;;4985088;28;20512;-89
2021/03/16 10:40:34;;;;;;;8.45;1.77;;;8.70;86.00;;;;;;4960158;28;20062;-86
2021/03/16 10:43:00;;;;;;;10.68;1.65;;;8.70;87.20;;;;;;4960899;28;20413;-90
2021/03/16 10:45:27;;;;;;;13.20;1.77;;;8.60;85.30;;;;;;4958123;28;20042;-90
2021/03/16 10:47:54;;;;;;;7.82;1.35;;;8.50;86.70;;;;;;4961653;28;20034;-86
2021/03/16 10:50:20;;;;;;;9.10;1.85;;;8.60;87.60;;;;;;4953967;28;20112;-86
2021/03/16 10:52:46;;;;;;;8.43;1.75;;;8.80;86.90;;;;;;4962475;28;20074;-86
2021/03/16 10:55:12;;;;;;;15.13;2.03;;;9.00;87.40;;;;;;4960271;28;20049;-86
2021/03/16 10:57:39;;;;;;;5.28;1.10;;;9.10;86.70;;;;;;4973859;28;20058;-86
2021/03/16 11:00:09;;;;;;;11.98;1.52;;;9.10;85.50;;;;;;4989695;28;20042;-87
2021/03/16 11:02:35;;;;;;;8.65;1.20;;;9.10;84.90;;;;;;4962004;28;20053;-86
2021/03/16 11:05:01;;;;;;;10.00;1.80;;;9.00;85.30;;;;;;4963773;28;20031;-89
2021/03/16 11:07:27;;;;;;;10.10;2.08;;;8.90;85.10;;;;;;4951655;28;21663;-87
2021/03/16 11:09:53;;;;;;;13.75;1.70;;;8.90;85.30;;;;;;4965668;28;20034;-86
2021/03/16 11:12:18;;;;;;;10.57;1.80;;;9.00;86.30;;;;;;4978246;28;20456;-86
2021/03/16 11:14:45;;;;;;;10.40;1.52;;;9.00;86.30;;;;;;4959088;28;20512;-90
2021/03/16 11:17:12;;;;;;;9.23;1.65;;;9.00;85.10;;;;;;4955254;28;20039;-87
2021/03/16 11:19:38;;;;;;;11.85;1.67;;;9.00;83.30;;;;;;4955917;28;20403;-88
2021/03/16 11:22:04;;;;;;;8.48;1.45;;;8.80;84.30;;;;;;4980149;28;20042;-88
2021/03/16 11:24:30;;;;;;;13.30;1.48;;;8.80;85.00;;;;;;4944003;28;20506;-88
2021/03/16 11:26:56;;;;;;;9.45;1.20;;;8.90;84.50;;;;;;4980197;28;20034;-86
2021/03/16 11:29:22;;;;;;;10.30;1.63;;;9.10;85.40;;;;;;4946775;28;20080;-88
2021/03/16 11:31:48;;;;;;;10.57;1.55;;;9.10;83.90;;;;;;4980420;28;20418;-88
2021/03/16 11:34:14;;;;;;;9.70;1.20;;;9.10;83.80;;;;;;4973158;28;20038;-87
2021/03/16 11:36:40;;;;;;;15.80;1.70;;;9.00;84.10;;;;;;4980992;28;20077;-86
2021/03/16 11:39:08;;;;;;;15.23;1.60;;;8.90;84.10;;;;;;4966303;28;20038;-86
2021/03/16 11:41:34;;;;;;;12.48;1.88;;;8.90;83.80;;;;;;4943315;28;20134;-86
2021/03/16 11:44:00;;;;;;;12.02;1.70;;;9.10;83.20;;;;;;4960504;28;20035;-89
2021/03/16 11:46:26;;;;;;;8.80;1.33;;;9.30;83.20;;;;;;4978059;28;20062;-91
2021/03/16 11:48:52;;;;;;;11.00;1.50;;;9.40;82.20;;;;;;4937971;28;20106;-87
2021/03/16 11:51:18;;;;;;;18.42;2.17;;;9.30;81.80;;;;;;4987752;28;20397;-84
2021/03/16 11:53:43;;;;;;;7.72;1.13;;;9.30;82.20;;;;;;4991095;28;20116;-87
2021/03/16 11:56:09;;;;;;;8.52;1.48;;;9.30;82.20;;;;;;4977788;28;20065;-86
2021/03/16 11:58:35;;;;;;;8.23;1.50;;;9.20;81.80;;;;;;4984996;28;20050;-89
2021/03/16 12:01:02;;;;;;;9.88;1.52;;;9.20;82.70;;;;;;4962696;28;20035;-87
2021/03/16 12:03:28;;;;;;;10.27;1.48;;;9.20;80.50;;;;;;4983845;28;20119;-87
2021/03/16 12:05:54;;;;;;;11.07;1.65;;;9.20;81.40;;;;;;4974935;28;20039;-87
2021/03/16 12:08:20;;;;;;;12.93;1.73;;;9.40;81.40;;;;;;4987285;28;20053;-87
2021/03/16 12:10:47;;;;;;;11.43;1.42;;;9.50;81.20;;;;;;4981010;28;20033;-87
2021/03/16 12:13:12;;;;;;;11.35;2.17;;;9.80;82.10;;;;;;4967431;28;20034;-87
2021/03/16 12:15:38;;;;;;;11.60;1.92;;;9.90;82.30;;;;;;4971919;28;20101;-88
2021/03/16 12:18:04;;;;;;;11.77;1.80;;;10.20;83.00;;;;;;4955539;28;20169;-86
2021/03/16 12:20:36;;;;;;;15.75;2.17;;;10.50;83.90;;;;;;4978903;28;20138;-91
2021/03/16 12:23:03;;;;;;;14.38;2.20;;;10.80;83.60;;;;;;4979837;28;20098;-89
2021/03/16 12:25:30;;;;;;;13.50;2.22;;;11.10;82.90;;;;;;4966871;28;20409;-91
2021/03/16 12:27:56;;;;;;;10.00;1.70;;;11.10;82.70;;;;;;4977980;28;20042;-88
2021/03/16 12:30:23;;;;;;;13.55;1.80;;;11.10;81.60;;;;;;4967964;28;20053;-87
2021/03/16 12:32:49;;;;;;;10.10;1.63;;;10.80;80.60;;;;;;4962733;28;20249;-90
2021/03/16 12:35:15;;;;;;;14.00;1.60;;;10.60;79.40;;;;;;4969884;28;20050;-89
2021/03/16 12:37:42;;;;;;;6.95;1.30;;;10.40;79.20;;;;;;4979421;28;20047;-86
2021/03/16 12:40:08;;;;;;;12.30;1.67;;;10.20;79.50;;;;;;4948171;28;20027;-88
2021/03/16 12:42:35;;;;;;;8.48;1.48;;;10.10;79.90;;;;;;4978636;28;20038;-88
2021/03/16 12:45:01;;;;;;;7.38;1.30;;;10.00;78.80;;;;;;4980635;28;20141;-87
2021/03/16 12:47:27;;;;;;;13.75;1.77;;;10.00;78.60;;;;;;4960627;28;20197;-87
2021/03/16 12:49:54;;;;;;;8.50;1.20;;;10.00;79.00;;;;;;4991398;28;20038;-86
2021/03/16 12:52:20;;;;;;;6.32;1.23;;;10.10;78.70;;;;;;4976212;28;20068;-86